地図

経路データ

SID SEASON NUMBER BASIN SUBBASIN NAME ISO_TIME NATURE LAT LON WMO_WIND WMO_PRES WMO_AGENCY TRACK_TYPE DIST2LAND LANDFALL IFLAG USA_AGENCY USA_ATCF_ID USA_LAT USA_LON USA_RECORD USA_STATUS USA_WIND USA_PRES USA_SSHS USA_R34_NE USA_R34_SE USA_R34_SW USA_R34_NW USA_R50_NE USA_R50_SE USA_R50_SW USA_R50_NW USA_R64_NE USA_R64_SE USA_R64_SW USA_R64_NW USA_POCI USA_ROCI USA_RMW USA_EYE TOKYO_LAT TOKYO_LON TOKYO_GRADE TOKYO_WIND TOKYO_PRES TOKYO_R50_DIR TOKYO_R50_LONG TOKYO_R50_SHORT TOKYO_R30_DIR TOKYO_R30_LONG TOKYO_R30_SHORT TOKYO_LAND CMA_LAT CMA_LON CMA_CAT CMA_WIND CMA_PRES HKO_LAT HKO_LON HKO_CAT HKO_WIND HKO_PRES NEWDELHI_LAT NEWDELHI_LON NEWDELHI_GRADE NEWDELHI_WIND NEWDELHI_PRES NEWDELHI_CI NEWDELHI_DP NEWDELHI_POCI REUNION_LAT REUNION_LON REUNION_TYPE REUNION_WIND REUNION_PRES REUNION_TNUM REUNION_CI REUNION_RMW REUNION_R34_NE REUNION_R34_SE REUNION_R34_SW REUNION_R34_NW REUNION_R50_NE REUNION_R50_SE REUNION_R50_SW REUNION_R50_NW REUNION_R64_NE REUNION_R64_SE REUNION_R64_SW REUNION_R64_NW BOM_LAT BOM_LON BOM_TYPE BOM_WIND BOM_PRES BOM_TNUM BOM_CI BOM_RMW BOM_R34_NE BOM_R34_SE BOM_R34_SW BOM_R34_NW BOM_R50_NE BOM_R50_SE BOM_R50_SW BOM_R50_NW BOM_R64_NE BOM_R64_SE BOM_R64_SW BOM_R64_NW BOM_ROCI BOM_POCI BOM_EYE BOM_POS_METHOD BOM_PRES_METHOD NADI_LAT NADI_LON NADI_CAT NADI_WIND NADI_PRES WELLINGTON_LAT WELLINGTON_LON WELLINGTON_WIND WELLINGTON_PRES DS824_LAT DS824_LON DS824_STAGE DS824_WIND DS824_PRES TD9636_LAT TD9636_LON TD9636_STAGE TD9636_WIND TD9636_PRES TD9635_LAT TD9635_LON TD9635_WIND TD9635_PRES TD9635_ROCI NEUMANN_LAT NEUMANN_LON NEUMANN_CLASS NEUMANN_WIND NEUMANN_PRES MLC_LAT MLC_LON MLC_CLASS MLC_WIND MLC_PRES USA_GUST BOM_GUST BOM_GUST_PER REUNION_GUST REUNION_GUST_PER USA_SEAHGT USA_SEARAD_NE USA_SEARAD_SE USA_SEARAD_SW USA_SEARAD_NW STORM_SPEED STORM_DIR
1951050S14170 1951 16 SP MM NOT_NAMED 1951-02-18 12:00:00 TS -13.8000 170.300 main 370 345 O________OO___ jtwc_sh SH211951 -13.8000 170.300 -1 -13.8000 170.300 TC -13.8000 170.300 4 4 244
1951050S14170 1951 16 SP MM NOT_NAMED 1951-02-18 15:00:00 TS -13.8966 170.096 main 345 321 P________PP___ SH211951 -13.8925 170.103 -1 -13.8925 170.103 TC -13.9049 170.083 4 4 243
1951050S14170 1951 16 SP MM NOT_NAMED 1951-02-18 18:00:00 TS -14.0059 169.891 main 321 297 O________OP___ jtwc_sh SH211951 -14.0000 169.900 -1 -14.0000 169.900 TC -14.0177 169.873 4 5 239
1951050S14170 1951 16 SP MM NOT_NAMED 1951-02-18 21:00:00 TS -14.1389 169.687 main 297 269 P________PP___ SH211951 -14.1350 169.692 -1 -14.1350 169.692 TC -14.1467 169.676 4 5 232
1951050S14170 1951 16 SP MM NOT_NAMED 1951-02-19 00:00:00 TS -14.3000 169.500 main 269 243 O________OO___ jtwc_sh SH211951 -14.3000 169.500 -1 -14.3000 169.500 TC -14.3000 169.500 4 5 223
1951050S14170 1951 16 SP MM NOT_NAMED 1951-02-19 03:00:00 TS -14.4936 169.340 main 243 228 P________PP___ SH211951 -14.5000 169.335 -1 -14.5000 169.335 TC -14.4809 169.349 4 5 216
1951050S14170 1951 16 SP MM NOT_NAMED 1951-02-19 06:00:00 TS -14.6908 169.207 main 228 209 O________OP___ jtwc_sh SH211951 -14.7000 169.200 -1 -14.7000 169.200 TC -14.6724 169.220 4 4 212
1951050S14170 1951 16 SP MM NOT_NAMED 1951-02-19 09:00:00 TS -14.8609 169.097 main 209 194 P________PP___ SH211951 -14.8650 169.092 -1 -14.8650 169.092 TC -14.8528 169.106 4 4 213
1951050S14170 1951 16 SP MM NOT_NAMED 1951-02-19 12:00:00 TS -15.0000 169.000 main 194 178 O________OO___ jtwc_sh SH211951 -15.0000 169.000 -1 -15.0000 169.000 TC -15.0000 169.000 4 3 217
1951050S14170 1951 16 SP MM NOT_NAMED 1951-02-19 15:00:00 TS -15.1130 168.906 main 178 163 P________PP___ SH211951 -15.1225 168.900 -1 -15.1225 168.900 TC -15.0939 168.917 4 3 225
1951050S14170 1951 16 SP MM NOT_NAMED 1951-02-19 18:00:00 TS -15.1841 168.812 main 163 156 O________OP___ jtwc_sh SH211951 -15.2000 168.800 -1 -15.2000 168.800 TC -15.1523 168.837 4 2 242
1951050S14170 1951 16 SP MM NOT_NAMED 1951-02-19 21:00:00 TS -15.2048 168.723 main 156 149 P________PP___ SH211951 -15.2150 168.715 -1 -15.2150 168.715 TC -15.1845 168.739 4 2 266
1951050S14170 1951 16 SP MM NOT_NAMED 1951-02-20 00:00:00 TS -15.2000 168.600 main 149 133 O________OO___ jtwc_sh SH211951 -15.2000 168.600 -1 -15.2000 168.600 TC -15.2000 168.600 4 3 270
1951050S14170 1951 16 SP MM NOT_NAMED 1951-02-20 03:00:00 TS -15.2061 168.420 main 133 112 P________PP___ SH211951 -15.2000 168.430 -1 -15.2000 168.430 TC -15.2185 168.401 4 4 269
1951050S14170 1951 16 SP MM NOT_NAMED 1951-02-20 06:00:00 TS -15.2075 168.187 main 112 82 O________OP___ jtwc_sh SH211951 -15.2000 168.200 -1 -15.2000 168.200 TC -15.2225 168.160 4 5 270
1951050S14170 1951 16 SP MM NOT_NAMED 1951-02-20 09:00:00 TS -15.2101 167.906 main 82 53 P________PP___ SH211951 -15.2075 167.915 -1 -15.2075 167.915 TC -15.2153 167.889 4 6 271
1951050S14170 1951 16 SP MM NOT_NAMED 1951-02-20 12:00:00 TS -15.2000 167.600 main 53 21 O________OO___ jtwc_sh SH211951 -15.2000 167.600 -1 -15.2000 167.600 TC -15.2000 167.600 4 6 277
1951050S14170 1951 16 SP MM NOT_NAMED 1951-02-20 15:00:00 TS -15.1430 167.311 main 21 0 P________PP___ SH211951 -15.1500 167.300 -1 -15.1500 167.300 TC -15.1291 167.334 4 6 281
1951050S14170 1951 16 SP MM NOT_NAMED 1951-02-20 18:00:00 TS -15.0865 167.017 main 0 0 O________OP___ jtwc_sh SH211951 -15.1000 167.000 -1 -15.1000 167.000 TC -15.0596 167.051 4 6 279
1951050S14170 1951 16 SP MM NOT_NAMED 1951-02-20 21:00:00 TS -15.0484 166.724 main 0 0 P________PP___ SH211951 -15.0549 166.715 -1 -15.0549 166.715 TC -15.0353 166.743 4 6 269
1951050S14170 1951 16 SP MM NOT_NAMED 1951-02-21 00:00:00 TS -15.1000 166.400 main 21 21 O________OO___ jtwc_sh SH211951 -15.1000 166.400 -1 -15.1000 166.400 TC -15.1000 166.400 4 7 249
1951050S14170 1951 16 SP MM NOT_NAMED 1951-02-21 03:00:00 TS -15.3060 166.012 main 64 64 P________PP___ SH211951 -15.2975 166.023 -1 -15.2975 166.023 TC -15.3231 165.992 4 9 237
1951050S14170 1951 16 SP MM NOT_NAMED 1951-02-21 06:00:00 TS -15.6110 165.584 main 109 109 O________OP___ jtwc_sh SH211951 -15.6000 165.600 -1 -15.6000 165.600 TC -15.6330 165.551 4 11 233
1951050S14170 1951 16 SP MM NOT_NAMED 1951-02-21 09:00:00 TS -15.9538 165.127 main 174 174 P________PP___ SH211951 -15.9426 165.135 -1 -15.9426 165.135 TC -15.9763 165.110 4 11 231
1951050S14170 1951 16 SP MM NOT_NAMED 1951-02-21 12:00:00 TS -16.3000 164.700 main 226 226 O________OO___ jtwc_sh SH211951 -16.3000 164.700 -1 -16.3000 164.700 TC -16.3000 164.700 4 10 227
1951050S14170 1951 16 SP MM NOT_NAMED 1951-02-21 15:00:00 TS -16.6240 164.378 main 270 270 P________PP___ SH211951 -16.6373 164.377 -1 -16.6373 164.377 TC -16.5972 164.380 4 8 225
1951050S14170 1951 16 SP MM NOT_NAMED 1951-02-21 18:00:00 TS -16.8855 164.098 main 315 315 O________OP___ jtwc_sh SH211951 -16.9000 164.100 -1 -16.9000 164.100 TC -16.8566 164.093 4 7 231
1951050S14170 1951 16 SP MM NOT_NAMED 1951-02-21 21:00:00 TS -17.0625 163.818 main 348 348 P________PP___ SH211951 -17.0748 163.823 -1 -17.0748 163.823 TC -17.0378 163.809 4 6 249
1951050S14170 1951 16 SP MM NOT_NAMED 1951-02-22 00:00:00 TS -17.1000 163.500 main 352 352 O________OO___ jtwc_sh SH211951 -17.1000 163.500 -1 -17.1000 163.500 TC -17.1000 163.500 4 7 277
1951050S14170 1951 16 SP MM NOT_NAMED 1951-02-22 03:00:00 TS -16.9691 163.051 main 373 373 P________PP___ SH211951 -16.9526 163.057 -1 -16.9526 163.057 TC -17.0020 163.038 4 10 293
1951050S14170 1951 16 SP MM NOT_NAMED 1951-02-22 06:00:00 TS -16.7287 162.588 main 422 422 O________OP___ jtwc_sh SH211951 -16.7000 162.600 -1 -16.7000 162.600 TC -16.7860 162.563 4 10 300
1951050S14170 1951 16 SP MM NOT_NAMED 1951-02-22 09:00:00 TS -16.4773 162.164 main 459 459 P________PP___ SH211951 -16.4650 162.167 -1 -16.4650 162.167 TC -16.5018 162.156 4 8 309
1951050S14170 1951 16 SP MM NOT_NAMED 1951-02-22 12:00:00 TS -16.2000 161.900 main 504 504 O________OO___ jtwc_sh SH211951 -16.2000 161.900 -1 -16.2000 161.900 TC -16.2000 161.900 4 6 337
1951050S14170 1951 16 SP MM NOT_NAMED 1951-02-22 15:00:00 TS -15.8976 161.907 main 506 485 P________PP___ SH211951 -15.8924 161.918 -1 -15.8924 161.918 TC -15.9081 161.885 4 11 7
1951050S14170 1951 16 SP MM NOT_NAMED 1951-02-22 18:00:00 TS -15.1192 162.035 main 481 436 O________OP___ jtwc_sh SH211951 -15.6000 162.100 -1 -15.6000 162.100 TC -15.6172 162.021 4 13 12
1951050S14170 1951 16 SP MM NOT_NAMED 1951-02-22 21:00:00 TS -14.6276 162.195 main 425 380 P________PP___ SH211951 -15.3475 162.285 -1 -15.3475 162.285 TC -15.3677 162.247 4 11 15
1951050S14170 1951 16 SP MM NOT_NAMED 1951-02-22 23:00:00 TS -14.2437 162.276 main 380 358 P________PP___ SH211951 -15.2329 162.428 -1 -15.2329 162.428 TC -15.2443 162.417 4 14 7
1951050S14170 1951 16 SP MM NOT_NAMED 1951-02-23 00:00:00 TS -13.9340 162.282 main 347 335 O________OO___ jtwc_sh SH211951 -15.2000 162.500 -1 -15.2000 162.500 TC -15.2000 162.500 4 5 22
1951050S14170 1951 16 SP MM NOT_NAMED 1951-02-23 03:00:00 TS -13.9249 162.406 main 347 347 P________PP___ SH211951 -15.2125 162.700 -1 -15.2125 162.700 TC -15.1639 162.710 4 2 102
1951050S14170 1951 16 SP MM NOT_NAMED 1951-02-23 06:00:00 TS -13.9850 162.533 main 359 359 O________OP___ jtwc_sh SH211951 -15.3000 162.900 -1 -15.3000 162.900 TC -15.2102 162.930 4 3 121
1951050S14170 1951 16 SP MM NOT_NAMED 1951-02-23 09:00:00 TS -14.0924 162.692 main 372 372 P________PP___ SH211951 -15.3500 163.122 -1 -15.3500 163.122 TC -15.3014 163.135 4 4 129
1951050S14170 1951 16 SP MM NOT_NAMED 1951-02-23 11:00:00 TS -14.1941 162.800 main 384 384 P________PP___ SH211951 -15.3833 163.250 -1 -15.3833 163.250 TC -15.3686 163.251 4 4 135
1951050S14170 1951 16 SP MM NOT_NAMED 1951-02-23 12:00:00 TS -14.2452 162.849 main 384 379 O________OO___ jtwc_sh SH211951 -15.4000 163.300 -1 -15.4000 163.300 TC -15.4000 163.300 4 4 141
1951050S14170 1951 16 SP MM NOT_NAMED 1951-02-23 15:00:00 TS -14.3858 162.963 main 379 367 P________PP___ SH211951 -15.4500 163.373 -1 -15.4500 163.373 TC -15.4092 163.381 4 4 147
1951050S14170 1951 16 SP MM NOT_NAMED 1951-02-23 18:00:00 TS -14.5503 163.059 main 366 355 O________OP___ jtwc_sh SH211951 -15.5000 163.400 -1 -15.5000 163.400 TC -15.4248 163.423 4 4 153
1951050S14170 1951 16 SP MM NOT_NAMED 1951-02-23 21:00:00 TS -14.7516 163.159 main 354 354 P________PP___ SH211951 -15.5200 163.443 -1 -15.5200 163.443 TC -15.4780 163.453 4 5 156
1951050S14170 1951 16 SP MM NOT_NAMED 1951-02-23 23:00:00 TS -14.9199 163.228 main 355 344 P________PP___ SH211951 -15.5605 163.478 -1 -15.5605 163.478 TC -15.5498 163.481 4 6 159
1951050S14170 1951 16 SP MM NOT_NAMED 1951-02-24 00:00:00 TS -15.0173 163.264 main 344 337 O________OO___ jtwc_sh SH211951 -15.6000 163.500 -1 -15.6000 163.500 TC -15.6000 163.500 4 7 161
1951050S14170 1951 16 SP MM NOT_NAMED 1951-02-24 03:00:00 TS -15.3907 163.391 main 339 333 P________PP___ SH211951 -15.8050 163.585 -1 -15.8050 163.585 TC -15.8445 163.623 4 8 162
1951050S14170 1951 16 SP MM NOT_NAMED 1951-02-24 06:00:00 TS -15.8213 163.528 main 335 323 O________OP___ jtwc_sh SH211951 -16.1000 163.700 -1 -16.1000 163.700 TC -16.1551 163.764 4 10 163
1951050S14170 1951 16 SP MM NOT_NAMED 1951-02-24 09:00:00 TS -16.2931 163.679 main 326 323 P________PP___ SH211951 -16.4650 163.865 -1 -16.4650 163.865 TC -16.4882 163.898 4 10 163
1951050S14170 1951 16 SP MM NOT_NAMED 1951-02-24 11:00:00 TS -16.6029 163.773 main 328 328 P________PP___ SH211951 -16.7009 163.964 -1 -16.7009 163.964 TC -16.7011 163.971 4 10 165
1951050S14170 1951 16 SP MM NOT_NAMED 1951-02-24 12:00:00 TS -16.7481 163.813 main 332 332 O________OO___ jtwc_sh SH211951 -16.8000 164.000 -1 -16.8000 164.000 TC -16.8000 164.000 4 8 167
1951050S14170 1951 16 SP MM NOT_NAMED 1951-02-24 15:00:00 TS -17.1094 163.890 main 345 313 P________PP___ SH211951 -16.9650 164.023 -1 -16.9650 164.023 TC -16.9434 164.004 4 7 170
1951050S14170 1951 16 SP MM NOT_NAMED 1951-02-24 18:00:00 TS -17.4345 163.945 main 313 279 O________OP___ jtwc_sh SH211951 -17.1000 164.000 -1 -17.1000 164.000 TC -17.0724 163.979 4 7 171
1951050S14170 1951 16 SP MM NOT_NAMED 1951-02-24 21:00:00 TS -17.7537 164.003 main 268 246 P________PP___ SH211951 -17.2675 163.970 -1 -17.2675 163.970 TC -17.2653 163.964 4 7 170
1951050S14170 1951 16 SP MM NOT_NAMED 1951-02-24 23:00:00 TS -17.9804 164.047 main 246 234 P________PP___ SH211951 -17.4600 163.977 -1 -17.4600 163.977 TC -17.4678 163.980 4 7 169
1951050S14170 1951 16 SP MM NOT_NAMED 1951-02-25 00:00:00 TS -18.1056 164.073 main 234 190 O________OO___ jtwc_sh SH211951 -17.6000 164.000 -1 -17.6000 164.000 TC -17.6000 164.000 4 9 168
1951050S14170 1951 16 SP MM NOT_NAMED 1951-02-25 03:00:00 TS -18.5747 164.179 main 179 124 P________PP___ SH211951 -18.2251 164.170 -1 -18.2251 164.170 TC -18.1987 164.149 4 10 167
1951050S14170 1951 16 SP MM NOT_NAMED 1951-02-25 06:00:00 TS -19.1020 164.320 main 124 78 O________OP___ jtwc_sh SH211951 -19.0000 164.400 -1 -19.0000 164.400 TC -18.9379 164.353 4 11 165
1951050S14170 1951 16 SP MM NOT_NAMED 1951-02-25 09:00:00 TS -19.6158 164.482 main 78 35 P________PP___ SH211951 -19.7650 164.607 -1 -19.7650 164.607 TC -19.7332 164.581 4 11 163
1951050S14170 1951 16 SP MM NOT_NAMED 1951-02-25 11:00:00 TS -19.9515 164.598 main 35 24 P________PP___ SH211951 -20.2645 164.739 -1 -20.2645 164.739 TC -20.2527 164.730 4 11 162
1951050S14170 1951 16 SP MM NOT_NAMED 1951-02-25 12:00:00 TS -20.1130 164.655 main 30 10 O________OO___ jtwc_sh SH211951 -20.5000 164.800 -1 -20.5000 164.800 TC -20.5000 164.800 4 9 161
1951050S14170 1951 16 SP MM NOT_NAMED 1951-02-25 15:00:00 TS -20.5434 164.814 main 10 0 P________PP___ SH211951 -21.1299 164.958 -1 -21.1299 164.958 TC -21.1220 164.965 4 9 161
1951050S14170 1951 16 SP MM NOT_NAMED 1951-02-25 18:00:00 TS -20.9898 164.983 main 0 0 O________OP___ jtwc_sh SH211951 -21.7000 165.100 -1 -21.7000 165.100 TC -21.7022 165.116 4 10 161
1951050S14170 1951 16 SP MM NOT_NAMED 1951-02-25 21:00:00 TS -21.5176 165.181 main 0 0 P________PP___ SH211951 -22.2575 165.250 -1 -22.2575 165.250 TC -22.2564 165.259 4 12 161
1951050S14170 1951 16 SP MM NOT_NAMED 1951-02-25 23:00:00 TS -21.8979 165.324 main 30 30 P________PP___ SH211951 -22.6193 165.350 -1 -22.6193 165.350 TC -22.6190 165.353 4 12 161
1951050S14170 1951 16 SP MM NOT_NAMED 1951-02-26 00:00:00 TS -22.0944 165.397 main 45 45 O________OO___ jtwc_sh SH211951 -22.8000 165.400 -1 -22.8000 165.400 TC -22.8000 165.400 4 13 161
1951050S14170 1951 16 SP MM NOT_NAMED 1951-02-26 03:00:00 TS -22.6945 165.625 main 84 84 P________PP___ SH211951 -23.3500 165.550 -1 -23.3500 165.550 TC -23.3774 165.554 4 13 161
1951050S14170 1951 16 SP MM NOT_NAMED 1951-02-26 06:00:00 TS -23.2905 165.848 main 127 122 O________OP___ jtwc_sh SH211951 -23.9000 165.700 -1 -23.9000 165.700 TC -23.9449 165.708 4 12 161
1951050S14170 1951 16 SP MM NOT_NAMED 1951-02-26 09:00:00 TS -23.8557 166.053 main 178 178 P________PP___ SH211951 -24.4725 165.872 -1 -24.4725 165.872 TC -24.4900 165.857 4 12 162
1951050S14170 1951 16 SP MM NOT_NAMED 1951-02-26 11:00:00 TS -24.2122 166.176 main 207 207 P________PP___ SH211951 -24.8338 165.967 -1 -24.8338 165.967 TC -24.8346 165.953 4 11 163
1951050S14170 1951 16 SP MM NOT_NAMED 1951-02-26 12:00:00 TS -24.3801 166.231 main 229 229 O________OO___ jtwc_sh SH211951 -25.0000 166.000 -1 -25.0000 166.000 TC -25.0000 166.000 4 10 166
1951050S14170 1951 16 SP MM NOT_NAMED 1951-02-26 15:00:00 TS -24.8371 166.354 main 269 269 P________PP___ SH211951 -25.4149 165.986 -1 -25.4149 165.986 TC -25.3543 166.049 4 10 166
1951050S14170 1951 16 SP MM NOT_NAMED 1951-02-26 18:00:00 TS -25.2990 166.490 main 324 324 O________OP___ jtwc_sh SH211951 -25.8000 166.000 -1 -25.8000 166.000 TC -25.6907 166.103 4 10 163
1951050S14170 1951 16 SP MM NOT_NAMED 1951-02-26 21:00:00 TS -25.8037 166.682 main 379 379 P________PP___ SH211951 -26.1596 166.154 -1 -26.1596 166.154 TC -26.1068 166.230 4 12 160
1951050S14170 1951 16 SP MM NOT_NAMED 1951-02-26 23:00:00 TS -26.1957 166.857 main 424 424 P________PP___ SH211951 -26.4843 166.359 -1 -26.4843 166.359 TC -26.4766 166.390 4 13 157
1951050S14170 1951 16 SP MM NOT_NAMED 1951-02-27 00:00:00 TS -26.4173 166.964 main 447 447 O________OO___ jtwc_sh SH211951 -26.7000 166.500 -1 -26.7000 166.500 TC -26.7000 166.500 4 17 155
1951050S14170 1951 16 SP MM NOT_NAMED 1951-02-27 03:00:00 TS -27.1955 167.380 main 538 538 P________PP___ SH211951 -27.5954 167.082 -1 -27.5954 167.082 TC -27.6345 167.010 4 18 155
1951050S14170 1951 16 SP MM NOT_NAMED 1951-02-27 06:00:00 TS -28.0780 167.847 main 643 643 O________OP___ jtwc_sh SH211951 -28.7000 167.800 -1 -28.7000 167.800 TC -28.7403 167.675 4 20 157
1951050S14170 1951 16 SP MM NOT_NAMED 1951-02-27 09:00:00 TS -29.0073 168.262 main 735 668 P________PP___ SH211951 -29.8723 168.500 -1 -29.8723 168.500 TC -29.9005 168.429 4 20 159
1951050S14170 1951 16 SP MM NOT_NAMED 1951-02-27 11:00:00 TS -29.6249 168.536 main 668 630 P________PP___ SH211951 -30.6430 168.970 -1 -30.6430 168.970 TC -30.6473 168.946 4 20 159
1951050S14170 1951 16 SP MM NOT_NAMED 1951-02-27 12:00:00 TS -29.9183 168.674 main 630 535 O________OO___ jtwc_sh SH211951 -31.0000 169.200 -1 -31.0000 169.200 TC -31.0000 169.200 4 18 156
1951050S14170 1951 16 SP MM NOT_NAMED 1951-02-27 15:00:00 TS -30.7146 169.106 main 535 435 P________PP___ SH211951 -31.9093 169.852 -1 -31.9093 169.852 TC -31.9519 169.926 4 18 154
1951050S14170 1951 16 SP MM NOT_NAMED 1951-02-27 18:00:00 TS -31.4953 169.578 main 435 366 O________OP___ jtwc_sh SH211951 -32.7000 170.500 -1 -32.7000 170.500 TC -32.7740 170.606 4 16 154
1951050S14170 1951 16 SP MM NOT_NAMED 1951-02-27 21:00:00 TS -32.1810 169.956 main 351 313 P________PP___ SH211951 -33.5034 171.362 -1 -33.4560 171.185 TC -33.5094 171.258 4 14 158
1951050S14170 1951 16 SP MM NOT_NAMED 1951-02-27 23:00:00 TS -32.5931 170.113 main 313 313 P________PP___ SH211951 -33.9841 171.794 -1 -33.9529 171.659 TC -33.9722 171.686 4 10 0
1951050S14170 1951 16 SP MM NOT_NAMED 1951-02-28 00:00:00 TS -32.6612 169.987 main 313 274 O________OO___ jtwc_sh SH211951 -34.2000 171.900 -1 -34.2000 171.900 TC -34.2000 171.900 4 12 185
1951050S14170 1951 16 SP MM NOT_NAMED 1951-02-28 03:00:00 TS -33.3955 170.034 main 268 183 P_____________ SH211951 -34.6855 171.479 -1 TC 4 19 165
1951050S14170 1951 16 SP MM NOT_NAMED 1951-02-28 06:00:00 TS -34.4887 170.590 main 182 160 O_____________ jtwc_sh SH221951 -35.2000 171.000 -1 4 21 156
1951050S14170 1951 16 SP MM NOT_NAMED 1951-02-28 09:00:00 TS -35.3402 171.084 main 163 163 P_____________ SH221951 -35.9687 171.284 -1 4 17 154
1951050S14170 1951 16 SP MM NOT_NAMED 1951-02-28 11:00:00 TS -35.7693 171.358 main 171 171 P_____________ SH221951 -36.5822 171.800 -1 4 10 153
1951050S14170 1951 16 SP MM NOT_NAMED 1951-02-28 12:00:00 TS -35.7829 171.367 main 171 167 O_____________ jtwc_sh SH221951 -36.9000 172.100 -1 6 152
1951050S14170 1951 16 SP MM NOT_NAMED 1951-02-28 15:00:00 NR -36.1004 171.575 main 169 168 ______________ SH221951 -1 12 151
1951050S14170 1951 16 SP MM NOT_NAMED 1951-02-28 18:00:00 NR -36.8640 172.120 main 186 171 ______________ -1 17 149
1951050S14170 1951 16 SP MM NOT_NAMED 1951-02-28 21:00:00 NR -37.5570 172.649 main 176 150 ______________ -1 16 148
1951050S14170 1951 16 SP MM NOT_NAMED 1951-02-28 23:00:00 NR -38.0000 173.000 main 150 ______________ -1 16 148

デジタル台風データ・検索

IBTrACS Databaseについて

本データベースは、米国NOAAが公開する1842年以降の世界の熱帯低気圧のベストトラックデータアーカイブInternational Best Track Archive for Climate Stewardship (IBTrACS)を、ウェブで閲覧しやすい形式に変換したものです。

最終更新日:2021-12-06